Time;durP1;ratioP1;P1;durP2;ratioP2;P2;SDS_P1;SDS_P2;PMS_P1;PMS_P2;Temp;Humidity;BMP_temperature;BMP_pressure;BME280_temperature;BME280_humidity;BME280_pressure;Samples;Min_cycle;Max_cycle;Signal;HPM_P1;HPM_P2
2022/10/04 00:02:30;;;;;;;4.60;2.30;;;12.00;99.90;;;-141.84;79.64;18631.19;5030066;28;20589;-71
2022/10/04 00:05:05;;;;;;;6.87;2.73;;;12.00;99.90;;;-141.84;80.28;18647.44;5031003;28;20189;-71
2022/10/04 00:07:38;;;;;;;4.40;2.10;;;11.90;99.90;;;-141.84;80.58;18659.63;5020174;28;20329;-69
2022/10/04 00:10:19;;;;;;;4.87;2.40;;;11.80;99.90;;;-141.84;80.83;18602.75;5025625;28;20237;-73
2022/10/04 00:12:51;;;;;;;9.37;3.20;;;11.80;99.90;;;-141.84;81.14;18627.13;5030548;28;20237;-69
2022/10/04 00:15:25;;;;;;;4.13;2.10;;;11.70;99.90;;;-141.84;81.27;18568.19;5029932;28;20226;-70
2022/10/04 00:18:21;;;;;;;4.73;2.40;;;11.60;99.90;;;-141.84;81.83;18576.31;5030233;28;20226;-70
2022/10/04 00:21:09;;;;;;;6.30;2.50;;;11.60;99.90;;;-141.84;82.37;18539.75;5030155;28;20245;-70
2022/10/04 00:23:48;;;;;;;4.60;2.20;;;11.50;99.90;;;-141.84;82.51;18531.63;5030126;28;20256;-70
2022/10/04 00:27:08;;;;;;;6.37;2.40;;;11.50;99.90;;;-141.84;82.56;18537.72;5044377;28;20216;-70
2022/10/04 00:29:40;;;;;;;6.20;2.53;;;11.50;99.90;;;-141.84;82.49;18535.69;5049744;28;20225;-70
2022/10/04 00:32:30;;;;;;;7.47;2.67;;;11.60;99.90;;;-141.84;82.52;18529.59;5048877;28;20660;-70
2022/10/04 00:34:59;;;;;;;4.33;1.90;;;11.50;99.90;;;-141.84;82.53;18525.53;5050199;28;20190;-69
2022/10/04 00:37:57;;;;;;;4.57;2.57;;;11.50;99.90;;;-141.84;82.37;18513.34;5049831;28;20225;-69
2022/10/04 00:40:29;;;;;;;6.37;2.53;;;11.60;99.90;;;-141.84;82.19;18529.59;5049827;28;20229;-69
2022/10/04 00:43:01;;;;;;;6.20;2.37;;;11.60;99.90;;;-141.84;82.21;18470.69;5049853;28;20238;-71
2022/10/04 00:45:38;;;;;;;3.60;2.00;;;11.50;99.90;;;-141.84;82.21;18497.09;5049603;28;20229;-69
2022/10/04 00:48:31;;;;;;;4.53;2.10;;;11.50;99.90;;;-141.84;81.88;18519.44;5049704;28;20225;-71
2022/10/04 00:51:11;;;;;;;4.87;2.00;;;11.60;99.90;;;-141.84;81.82;18480.84;5051502;28;20248;-70
2022/10/04 00:54:01;;;;;;;5.23;2.20;;;11.60;99.90;;;-141.84;81.36;18513.34;5053484;28;20225;-70
2022/10/04 00:56:39;;;;;;;3.73;2.10;;;11.70;99.90;;;-141.84;81.46;18515.38;5053406;28;20221;-71
2022/10/04 00:59:33;;;;;;;5.67;2.87;;;11.70;99.90;;;-141.84;81.44;18507.25;5052948;28;20774;-69
2022/10/04 01:02:07;;;;;;;3.80;2.23;;;11.70;99.90;;;-141.84;81.43;18525.53;5053228;28;20241;-71
2022/10/04 01:04:47;;;;;;;2.97;2.00;;;11.70;99.90;;;-141.84;81.04;18513.34;5051877;28;20288;-69
2022/10/04 01:07:23;;;;;;;5.63;2.53;;;11.80;99.90;;;-141.84;80.79;18521.47;5035160;28;20222;-71
2022/10/04 01:10:00;;;;;;;6.40;2.60;;;11.80;99.90;;;-141.84;80.98;18452.41;5032693;28;20249;-69
2022/10/04 01:12:44;;;;;;;9.67;2.93;;;11.70;99.90;;;-141.84;81.31;18501.16;5013427;28;20736;-72
2022/10/04 01:15:22;;;;;;;6.03;2.40;;;11.90;99.90;;;-141.84;81.00;18503.19;5012857;28;20241;-70
2022/10/04 01:18:09;;;;;;;3.47;2.07;;;11.70;99.90;;;-141.84;80.99;18503.19;5013050;28;20649;-70
2022/10/04 01:20:48;;;;;;;4.20;2.20;;;11.80;99.90;;;-141.84;80.87;18480.84;5013165;28;20276;-71
2022/10/04 01:26:41;;;;;;;5.83;2.20;;;11.80;99.90;;;-141.84;79.89;18497.09;5107745;27;20922;-72
2022/10/04 01:29:15;;;;;;;3.63;2.40;;;11.80;99.90;;;-141.84;79.98;18497.09;5048052;28;20188;-71
2022/10/04 01:31:46;;;;;;;5.13;2.30;;;11.80;99.90;;;-141.84;79.37;18486.94;5048097;28;20216;-69
2022/10/04 01:34:18;;;;;;;6.60;2.40;;;11.80;99.90;;;-141.84;79.21;18501.16;5047827;28;20233;-71
2022/10/04 01:36:50;;;;;;;4.37;2.17;;;11.90;99.90;;;-141.84;79.15;18519.44;5047922;28;20232;-70
2022/10/04 01:39:22;;;;;;;3.83;1.97;;;11.90;99.90;;;-141.84;78.43;18547.88;5047926;28;20310;-71
2022/10/04 01:41:58;;;;;;;4.23;2.27;;;11.90;99.90;;;-141.84;77.34;18602.75;5047709;28;20302;-70
2022/10/04 01:44:35;;;;;;;2.50;1.70;;;12.00;99.90;;;-141.84;77.56;18558.03;5047259;28;20720;-71
2022/10/04 01:47:12;;;;;;;4.50;1.87;;;12.00;99.90;;;-141.84;78.19;18558.03;5048236;28;20189;-70
2022/10/04 01:49:46;;;;;;;3.47;1.73;;;12.00;99.90;;;-141.84;78.02;18531.63;5067800;28;20223;-70
2022/10/04 01:52:22;;;;;;;3.40;2.00;;;12.00;99.90;;;-141.84;78.86;18572.25;5050022;28;20225;-69
2022/10/04 01:54:59;;;;;;;5.13;2.00;;;11.90;99.90;;;-141.84;78.98;18509.28;5047358;28;20216;-70
2022/10/04 01:57:37;;;;;;;5.70;2.03;;;11.90;99.90;;;-141.84;78.94;18556.00;5047374;28;20709;-71
2022/10/04 02:00:09;;;;;;;2.43;1.63;;;11.90;99.90;;;-141.84;78.49;18533.66;5046761;28;20575;-71
2022/10/04 02:02:44;;;;;;;6.13;2.30;;;11.90;99.90;;;-141.84;78.98;18521.47;5047143;28;20234;-70
2022/10/04 02:05:17;;;;;;;3.90;2.03;;;11.90;99.90;;;-141.84;78.22;18543.81;5047982;28;20258;-71
2022/10/04 02:07:48;;;;;;;4.50;1.90;;;11.90;99.90;;;-141.84;78.64;18503.19;5048028;28;20197;-73
2022/10/04 02:10:20;;;;;;;4.10;2.17;;;11.90;99.90;;;-141.84;79.23;18525.53;5046897;28;20221;-71
2022/10/04 02:12:54;;;;;;;6.43;1.80;;;11.80;99.90;;;-141.84;79.42;18529.59;5047195;28;20237;-72
2022/10/04 02:15:25;;;;;;;4.70;1.87;;;11.80;99.90;;;-141.84;79.05;18509.28;5047032;28;20245;-70
2022/10/04 02:17:57;;;;;;;5.67;2.10;;;11.80;99.90;;;-141.84;77.98;18523.50;5046805;28;20217;-72
2022/10/04 02:20:27;;;;;;;3.43;1.90;;;11.70;99.90;;;-141.84;77.96;18543.81;5046922;28;20182;-69
2022/10/04 02:23:01;;;;;;;4.17;2.00;;;11.70;99.90;;;-141.84;78.25;18517.41;5047500;28;20197;-69
2022/10/04 02:25:31;;;;;;;7.03;2.40;;;11.50;99.90;;;-141.84;78.50;18551.94;5046567;28;20225;-72
2022/10/04 02:28:01;;;;;;;5.83;1.90;;;11.70;99.90;;;-141.84;78.74;18505.22;5046805;28;20229;-71
2022/10/04 02:30:36;;;;;;;3.73;1.80;;;11.60;99.90;;;-141.84;78.95;18545.84;5046119;28;20248;-71
2022/10/04 02:33:04;;;;;;;5.00;1.97;;;11.60;99.90;;;-141.84;78.26;18503.19;5045989;28;20244;-69
2022/10/04 02:35:36;;;;;;;5.53;1.97;;;11.50;99.90;;;-141.84;78.95;18478.81;5044285;28;20225;-71
2022/10/04 02:38:17;;;;;;;4.27;2.00;;;11.50;99.90;;;-141.84;79.73;18468.66;5034013;28;20259;-70
2022/10/04 02:40:56;;;;;;;6.07;2.20;;;11.30;99.90;;;-141.84;80.55;18452.41;5053582;28;20351;-69
2022/10/04 02:43:34;;;;;;;5.50;2.60;;;11.20;99.90;;;-141.84;80.95;18421.91;5053205;28;20228;-70
2022/10/04 02:46:11;;;;;;;9.03;2.60;;;11.20;99.90;;;-141.84;81.33;18409.72;5052482;28;20758;-70
2022/10/04 02:48:47;;;;;;;6.23;2.87;;;11.10;99.90;;;-141.84;81.42;18440.22;5052873;28;20657;-70
2022/10/04 02:51:24;;;;;;;5.20;2.73;;;11.00;99.90;;;-141.84;82.07;18338.63;5053027;28;20228;-70
2022/10/04 02:54:02;;;;;;;6.93;3.07;;;10.90;99.90;;;-141.84;82.69;18393.47;5053000;28;20220;-69
2022/10/04 02:56:32;;;;;;;4.87;3.30;;;10.90;99.90;;;-141.84;83.27;18363.00;5048398;28;20283;-70
2022/10/04 02:59:04;;;;;;;4.87;3.23;;;10.80;99.90;;;-141.84;83.25;18358.94;5053533;28;20201;-71
2022/10/04 03:01:50;;;;;;;8.13;3.77;;;10.80;99.90;;;-141.84;83.20;18367.06;5033134;28;20210;-70
2022/10/04 03:04:22;;;;;;;6.50;3.63;;;10.70;99.90;;;-141.84;82.58;18358.94;5051040;28;20236;-70
2022/10/04 03:06:52;;;;;;;6.30;3.30;;;10.80;99.90;;;-141.84;82.12;18371.13;5052727;28;20236;-70
2022/10/04 03:09:23;;;;;;;7.00;3.30;;;10.80;99.90;;;-141.84;81.93;18356.91;5052900;28;20225;-69
2022/10/04 03:11:57;;;;;;;7.53;3.60;;;10.90;99.90;;;-141.84;82.08;18381.28;5044233;28;20282;-70
2022/10/04 03:14:28;;;;;;;8.53;4.20;;;10.80;99.90;;;-141.84;82.33;18318.31;5052586;28;20205;-73
2022/10/04 03:17:02;;;;;;;8.00;3.60;;;10.80;99.90;;;-141.84;82.38;18314.25;5052715;28;20178;-70
2022/10/04 03:19:34;;;;;;;8.57;3.50;;;10.80;99.90;;;-141.84;82.63;18338.63;5052425;28;20225;-70
2022/10/04 03:22:08;;;;;;;6.17;3.57;;;10.70;99.90;;;-141.84;82.58;18340.66;5052224;28;20236;-70
2022/10/04 03:24:45;;;;;;;11.10;4.07;;;10.60;99.90;;;-141.84;82.31;18354.88;5052134;28;20600;-70
2022/10/04 03:27:19;;;;;;;7.33;3.50;;;10.60;99.90;;;-141.84;81.81;18373.16;5052167;28;20249;-71
2022/10/04 03:29:50;;;;;;;10.23;4.10;;;10.70;99.90;;;-141.84;81.70;18326.44;5052374;28;20225;-71
2022/10/04 03:32:23;;;;;;;6.77;4.50;;;10.60;99.90;;;-141.84;82.30;18324.41;5052224;28;20236;-70
2022/10/04 03:34:57;;;;;;;10.10;4.83;;;10.60;99.90;;;-141.84;82.71;18261.44;5052533;28;20197;-70
2022/10/04 03:37:29;;;;;;;8.37;3.90;;;10.50;99.90;;;-141.84;82.35;18334.56;5051986;28;20228;-71
2022/10/04 03:39:58;;;;;;;5.60;3.70;;;10.50;99.90;;;-141.84;82.00;18320.34;5052186;28;20469;-69
2022/10/04 03:42:31;;;;;;;5.97;3.73;;;10.50;99.90;;;-141.84;82.20;18289.88;5052090;28;20712;-70
2022/10/04 03:45:07;;;;;;;7.67;4.23;;;10.50;99.90;;;-141.84;82.28;18304.09;5051465;28;20806;-70
2022/10/04 03:47:39;;;;;;;7.07;4.33;;;10.40;99.90;;;-141.84;82.63;18289.88;5050129;28;20715;-71
2022/10/04 03:50:22;;;;;;;6.87;4.30;;;10.30;99.90;;;-141.84;83.22;18289.88;5052001;28;20182;-70
2022/10/04 03:52:54;;;;;;;5.30;3.90;;;10.30;99.90;;;-141.84;83.73;18259.41;5051633;28;20205;-70
2022/10/04 03:55:32;;;;;;;8.40;4.50;;;10.20;99.90;;;-141.84;83.22;18243.16;5051546;28;20745;-69
2022/10/04 03:58:01;;;;;;;7.50;4.63;;;10.20;99.90;;;-141.84;83.68;18289.88;5051768;28;20290;-69
2022/10/04 04:00:31;;;;;;;6.97;4.80;;;10.20;99.90;;;-141.84;83.75;18287.84;5051720;28;20244;-70
2022/10/04 04:03:05;;;;;;;5.50;4.07;;;10.10;99.90;;;-141.84;83.32;18261.44;5051132;28;20229;-70
2022/10/04 04:05:43;;;;;;;7.97;4.20;;;10.10;99.90;;;-141.84;83.73;18261.44;5051931;28;20317;-70
2022/10/04 04:08:19;;;;;;;6.47;4.13;;;10.10;99.90;;;-141.84;84.21;18259.41;5051557;28;20196;-70
2022/10/04 04:10:53;;;;;;;4.13;3.57;;;10.10;99.90;;;-141.84;83.66;18235.00;5051932;28;20189;-70
2022/10/04 04:13:29;;;;;;;10.07;3.97;;;10.10;99.90;;;-141.84;83.26;18247.22;5050294;28;20897;-70
2022/10/04 04:16:02;;;;;;;7.67;3.80;;;10.10;99.90;;;-141.84;83.39;18216.72;5050992;28;20225;-69
2022/10/04 04:18:34;;;;;;;6.53;3.60;;;10.00;99.90;;;-141.84;83.34;18232.97;5051475;28;20291;-70
2022/10/04 04:21:06;;;;;;;6.73;3.77;;;10.10;99.90;;;-141.84;82.88;18235.00;5051278;28;20350;-70
2022/10/04 04:23:38;;;;;;;7.40;3.33;;;10.00;99.90;;;-141.84;83.50;18204.53;5050866;28;20271;-70
2022/10/04 04:26:20;;;;;;;6.20;3.43;;;10.00;99.90;;;-141.84;83.68;18204.53;5051189;28;20232;-69
2022/10/04 04:28:53;;;;;;;3.20;2.80;;;10.00;99.90;;;-141.84;83.58;18174.06;5051754;28;20189;-69
2022/10/04 04:31:28;;;;;;;6.93;3.07;;;10.00;99.90;;;-141.84;83.15;18222.81;5050646;28;20228;-69
2022/10/04 04:33:59;;;;;;;6.17;3.10;;;10.00;99.90;;;-141.84;82.83;18247.22;5050747;28;20307;-69
2022/10/04 04:36:30;;;;;;;4.97;3.07;;;10.00;99.90;;;-141.84;81.82;18224.84;5051194;28;20221;-70
2022/10/04 04:41:51;;;;;;;7.40;2.97;;;10.00;99.90;;;-141.84;81.85;18237.06;5041963;28;20221;-69
2022/10/04 04:44:20;;;;;;;6.43;2.93;;;10.00;99.90;;;-141.84;81.73;18251.28;5050686;28;20503;-70
2022/10/04 04:46:50;;;;;;;9.53;3.60;;;10.00;99.90;;;-141.84;81.66;18249.25;5049536;28;20653;-71
2022/10/04 04:49:18;;;;;;;5.53;2.77;;;10.10;99.90;;;-141.84;81.94;18220.78;5050126;28;20278;-70
2022/10/04 04:51:50;;;;;;;7.90;3.10;;;10.10;99.90;;;-141.84;82.63;18220.78;5050551;28;20233;-70
2022/10/04 04:54:25;;;;;;;3.87;2.60;;;10.00;99.90;;;-141.84;82.57;18214.69;5050645;28;20294;-64
2022/10/04 04:56:56;;;;;;;4.87;2.97;;;10.00;99.90;;;-141.84;82.69;18228.91;5050592;28;20224;-64
2022/10/04 04:59:26;;;;;;;7.93;3.27;;;10.00;99.90;;;-141.84;81.80;18251.28;5050441;28;20209;-64
2022/10/04 05:01:56;;;;;;;4.17;2.90;;;10.00;99.90;;;-141.84;81.52;18235.00;5051134;28;20239;-64
2022/10/04 05:04:25;;;;;;;7.30;3.40;;;10.10;99.90;;;-141.84;80.58;18257.38;5050218;28;20233;-65
2022/10/04 05:07:02;;;;;;;6.43;3.20;;;10.10;99.90;;;-141.84;80.69;18263.47;5050328;28;20228;-63
2022/10/04 05:09:34;;;;;;;5.63;3.30;;;10.20;99.90;;;-141.84;80.90;18277.69;5050550;28;20228;-64
2022/10/04 05:12:13;;;;;;;6.60;3.70;;;10.10;99.90;;;-141.84;80.30;18263.47;5050400;28;20220;-64
2022/10/04 05:14:49;;;;;;;7.17;3.40;;;10.20;99.90;;;-141.84;80.02;18273.63;5050140;28;20567;-63
2022/10/04 05:17:24;;;;;;;7.63;4.13;;;10.20;99.90;;;-141.84;79.98;18285.81;5050613;28;20229;-64
2022/10/04 05:19:57;;;;;;;4.67;3.37;;;10.20;99.90;;;-141.84;80.55;18235.00;5049464;28;20268;-64
2022/10/04 05:22:28;;;;;;;4.37;3.60;;;10.30;99.90;;;-141.84;81.24;18257.38;5050185;28;20229;-63
2022/10/04 05:25:02;;;;;;;6.67;3.20;;;10.30;99.90;;;-141.84;80.27;18289.88;5049714;28;20229;-65
2022/10/04 05:27:37;;;;;;;7.00;3.97;;;10.30;99.90;;;-141.84;79.56;18293.94;5050343;28;20299;-64
2022/10/04 05:30:13;;;;;;;7.33;3.70;;;10.30;99.90;;;-141.84;79.50;18326.44;5050092;28;20259;-63
2022/10/04 05:32:57;;;;;;;7.43;3.60;;;10.40;99.90;;;-141.84;78.96;18306.13;5049788;28;20225;-63
2022/10/04 05:35:28;;;;;;;8.60;3.80;;;10.40;99.90;;;-141.84;78.97;18334.56;5050191;28;20189;-64
2022/10/04 05:38:07;;;;;;;5.80;3.60;;;10.50;99.90;;;-141.84;77.93;18338.63;5050864;28;20198;-64
2022/10/04 05:40:47;;;;;;;5.00;3.40;;;10.50;99.90;;;-141.84;77.62;18344.72;5030531;28;20583;-64
2022/10/04 05:43:35;;;;;;;7.37;3.93;;;10.60;99.90;;;-141.84;76.91;18367.06;5047842;28;20232;-64
2022/10/04 05:46:21;;;;;;;6.23;3.50;;;10.70;99.90;;;-141.84;76.03;18387.38;5049517;28;20229;-66
2022/10/04 05:48:55;;;;;;;5.33;3.40;;;10.80;99.90;;;-141.84;76.26;18397.53;5049716;28;20598;-65
2022/10/04 05:51:27;;;;;;;6.80;3.73;;;10.90;99.90;;;-141.84;74.98;18448.34;5049411;28;20499;-65
2022/10/04 05:54:01;;;;;;;8.00;3.67;;;11.00;99.90;;;-141.84;76.21;18415.81;5050038;28;20233;-64
2022/10/04 05:57:14;;;;;;;6.53;3.90;;;11.00;99.90;;;-141.84;75.54;18438.19;5050125;28;20225;-65
2022/10/04 06:00:05;;;;;;;6.67;4.20;;;11.10;99.90;;;-141.84;75.24;18486.94;5050050;28;20217;-64
2022/10/04 06:03:15;;;;;;;6.83;4.00;;;11.20;99.90;;;-141.84;75.31;18444.28;5049795;28;20228;-64
2022/10/04 06:05:52;;;;;;;5.70;3.90;;;11.20;99.90;;;-141.84;75.70;18495.06;5049722;28;20222;-63
2022/10/04 06:08:40;;;;;;;8.13;4.30;;;11.40;99.90;;;-141.84;75.19;18497.09;5050173;28;20516;-65
2022/10/04 06:11:32;;;;;;;7.53;4.30;;;11.30;99.90;;;-141.84;74.43;18547.88;5050490;28;20247;-65
2022/10/04 06:14:26;;;;;;;7.07;4.30;;;11.40;99.90;;;-141.84;73.59;18562.09;5054101;28;20251;-64
2022/10/04 06:17:17;;;;;;;8.70;4.33;;;11.50;99.90;;;-141.84;73.47;18568.19;5033568;28;20214;-65
2022/10/04 06:20:31;;;;;;;8.20;4.20;;;11.60;99.90;;;-141.84;72.30;18602.75;5033824;28;20666;-66
2022/10/04 06:23:06;;;;;;;9.47;4.03;;;11.70;99.90;;;-141.84;72.56;18584.47;5032761;28;20222;-65
2022/10/04 06:25:45;;;;;;;6.53;3.10;;;11.80;99.90;;;-141.84;73.39;18553.97;5053431;28;20229;-65
2022/10/04 06:28:21;;;;;;;9.47;3.60;;;11.80;99.90;;;-141.84;73.14;18596.66;5052721;28;20727;-64
2022/10/04 06:31:17;;;;;;;6.83;3.27;;;11.80;99.90;;;-141.84;71.65;18637.28;5052613;28;20229;-64
2022/10/04 06:34:28;;;;;;;5.53;3.17;;;11.90;99.90;;;-141.84;71.53;18679.94;5053116;28;20641;-64
2022/10/04 06:37:26;;;;;;;6.37;3.10;;;11.90;99.90;;;-141.84;72.22;18643.38;5053088;28;20232;-65
2022/10/04 06:40:28;;;;;;;5.60;2.60;;;12.00;99.90;;;-141.84;71.99;18637.28;5053049;28;20229;-66
2022/10/04 06:43:30;;;;;;;9.93;2.90;;;11.90;99.90;;;-141.84;71.56;18686.03;5033249;28;20255;-65
2022/10/04 06:46:14;;;;;;;7.37;3.17;;;11.90;99.90;;;-141.84;71.48;18698.22;5032822;28;20644;-65
2022/10/04 06:49:17;;;;;;;3.90;3.10;;;12.00;99.90;;;-141.84;71.40;18686.03;5033004;28;20241;-66
2022/10/04 06:52:19;;;;;;;6.97;3.13;;;12.00;99.90;;;-141.84;71.47;18708.41;5032971;28;20237;-65
2022/10/04 06:55:33;;;;;;;5.60;3.80;;;12.00;99.90;;;-141.84;71.28;18722.63;5034412;28;20229;-66
2022/10/04 06:58:40;;;;;;;4.20;3.33;;;12.00;99.90;;;-141.84;72.01;18692.13;5052964;28;20221;-65
2022/10/04 07:01:26;;;;;;;7.13;3.00;;;12.10;99.90;;;-141.84;72.38;18688.06;5052585;28;20735;-66
2022/10/04 07:04:06;;;;;;;5.33;3.20;;;12.20;99.90;;;-141.84;70.98;18726.69;5053204;28;20646;-66
2022/10/04 07:06:46;;;;;;;7.47;3.30;;;12.30;99.90;;;-141.84;70.21;18828.28;5052798;28;20700;-66
2022/10/04 07:09:24;;;;;;;5.43;3.10;;;12.50;99.90;;;-141.84;69.01;18846.56;5052975;28;20577;-67
2022/10/04 07:12:01;;;;;;;6.33;2.97;;;12.50;99.90;;;-141.84;69.02;18856.72;5052782;28;20217;-66
2022/10/04 07:14:38;;;;;;;4.93;3.00;;;12.70;99.90;;;-141.84;69.89;18807.94;5052492;28;20228;-64
2022/10/04 07:17:18;;;;;;;7.53;3.00;;;12.60;99.90;;;-141.84;69.50;18826.25;5052974;28;20181;-66
2022/10/04 07:19:49;;;;;;;5.67;2.73;;;12.70;99.90;;;-141.84;69.33;18842.50;5052995;28;20740;-64
2022/10/04 07:22:26;;;;;;;6.00;3.33;;;12.80;99.90;;;-141.84;69.38;18836.41;5052316;28;20240;-65
2022/10/04 07:25:07;;;;;;;5.90;3.53;;;12.80;99.90;;;-141.84;69.57;18877.03;5052269;28;20225;-66
2022/10/04 07:29:19;;;;;;;5.33;3.20;;;12.90;99.90;;;-141.84;67.96;18960.34;5052508;28;20236;-65
2022/10/04 07:30:51;;;;;;;5.57;2.50;;;13.00;99.90;;;-141.84;66.79;19039.59;5052537;28;20233;-65
2022/10/04 07:33:26;;;;;;;4.55;2.72;;;13.20;99.90;;;-141.84;66.64;19096.47;5052264;28;20251;-65
2022/10/04 07:36:06;;;;;;;5.35;2.70;;;13.30;99.90;;;-141.84;66.47;19114.78;5052233;28;20240;-64
2022/10/04 07:38:47;;;;;;;7.18;2.88;;;13.40;99.90;;;-141.84;67.06;19057.88;5052550;28;20228;-64
2022/10/04 07:41:25;;;;;;;4.22;2.53;;;13.50;99.90;;;-141.84;66.59;19106.66;5052510;28;20185;-65
2022/10/04 07:43:59;;;;;;;7.30;2.92;;;13.50;99.90;;;-141.84;65.39;19216.38;5053198;28;20533;-65
2022/10/04 07:46:47;;;;;;;7.40;3.60;;;13.50;99.90;;;-141.84;65.88;19206.22;5051937;28;20805;-66
2022/10/04 07:49:19;;;;;;;5.00;2.40;;;13.70;99.90;;;-141.84;64.80;19273.28;5052144;28;20232;-66
2022/10/04 07:52:19;;;;;;;6.03;2.60;;;13.80;99.90;;;-141.84;64.40;19332.19;5051524;28;20228;-64
2022/10/04 07:55:00;;;;;;;4.15;2.28;;;14.00;99.90;;;-141.84;65.13;19317.97;5052329;28;20237;-65
2022/10/04 07:57:38;;;;;;;6.55;3.30;;;14.10;99.90;;;-141.84;63.75;19452.09;5051994;28;20808;-65
2022/10/04 08:00:17;;;;;;;10.32;4.32;;;14.20;99.90;;;-141.84;64.71;19399.25;5052288;28;20233;-65
2022/10/04 08:03:10;;;;;;;4.90;2.38;;;14.30;99.90;;;-141.84;62.58;19523.22;5052069;28;20286;-65
2022/10/04 08:05:43;;;;;;;6.75;2.60;;;14.40;99.90;;;-141.84;62.18;19618.75;5052169;28;20760;-65
2022/10/04 08:08:37;;;;;;;6.13;2.28;;;14.50;99.90;;;-141.84;62.70;19604.50;5052429;28;20205;-65
2022/10/04 08:11:24;;;;;;;4.38;2.42;;;14.50;99.90;;;-141.84;62.57;19574.03;5052179;28;20626;-66
2022/10/04 08:14:03;;;;;;;4.60;2.50;;;14.60;99.90;;;-141.84;61.92;19665.47;5032422;28;20205;-65
2022/10/04 08:16:43;;;;;;;6.50;2.72;;;14.60;99.90;;;-141.84;62.16;19637.03;5031587;28;20226;-64
2022/10/04 08:19:42;;;;;;;6.13;2.72;;;14.60;99.90;;;-141.84;62.58;19620.78;5032000;28;20257;-65
2022/10/04 08:22:27;;;;;;;6.63;2.60;;;14.70;99.90;;;-141.84;62.04;19716.28;5031660;28;20236;-65
2022/10/04 08:25:10;;;;;;;5.93;2.70;;;14.70;99.90;;;-141.84;62.56;19669.53;5031715;28;20229;-65
2022/10/04 08:31:11;;;;;;;6.25;3.30;;;14.90;99.90;;;-141.84;60.09;19850.41;4970039;28;20232;-65
2022/10/04 08:33:57;;;;;;;3.80;2.60;;;15.10;99.90;;;-141.84;59.63;19939.84;4969708;28;20703;-65
2022/10/04 08:36:44;;;;;;;5.57;3.10;;;15.20;99.90;;;-141.84;59.79;19960.16;5012449;28;20225;-65
2022/10/04 08:39:35;;;;;;;5.45;3.17;;;15.20;99.90;;;-141.84;61.13;19876.84;5032500;28;20233;-65
2022/10/04 08:42:52;;;;;;;5.22;3.30;;;15.10;99.90;;;-141.84;61.10;19862.63;5031923;28;20230;-70
2022/10/04 08:46:08;;;;;;;6.93;2.83;;;15.10;99.90;;;-141.84;61.33;19866.69;5028729;28;20230;-70
2022/10/04 08:49:31;;;;;;;4.93;2.42;;;15.10;99.90;;;-141.84;61.02;19872.78;5031433;28;20237;-70
2022/10/04 08:52:41;;;;;;;4.95;3.00;;;15.20;99.90;;;-141.84;60.58;19862.63;5024538;28;20242;-69
2022/10/04 08:55:57;;;;;;;7.95;2.95;;;15.10;99.90;;;-141.84;60.21;19947.97;5031130;28;20229;-70
2022/10/04 08:59:08;;;;;;;4.97;2.83;;;15.10;99.90;;;-141.84;60.12;19952.03;5031170;28;20229;-71
2022/10/04 09:02:06;;;;;;;4.78;2.67;;;15.30;99.90;;;-141.84;60.70;19958.13;5017789;28;20249;-69
2022/10/04 09:05:35;;;;;;;6.15;2.90;;;15.30;99.90;;;-141.84;60.32;19964.25;5051236;28;20213;-70
2022/10/04 09:09:02;;;;;;;8.20;3.30;;;15.40;99.90;;;-141.84;58.73;20132.94;5030956;28;20613;-70
2022/10/04 09:12:12;;;;;;;7.70;3.05;;;15.50;99.90;;;-141.84;58.89;20124.81;5034119;28;20286;-70
2022/10/04 09:15:13;;;;;;;4.68;2.70;;;15.70;99.90;;;-141.84;59.20;20110.56;5050813;28;20221;-70
2022/10/04 09:17:54;;;;;;;5.90;3.20;;;15.60;99.90;;;-141.84;60.05;20043.50;5050638;28;20225;-71
2022/10/04 09:20:40;;;;;;;9.02;3.28;;;15.60;99.90;;;-141.84;59.17;20110.56;5050628;28;20189;-71
2022/10/04 09:23:40;;;;;;;7.13;3.28;;;15.70;99.90;;;-141.84;59.06;20108.53;5050437;28;20193;-70
2022/10/04 09:26:21;;;;;;;7.07;3.08;;;15.80;99.90;;;-141.84;57.90;20200.00;5050552;28;20221;-69
2022/10/04 09:29:34;;;;;;;6.28;3.05;;;15.70;99.90;;;-141.84;58.24;20171.56;5051122;28;20206;-70
2022/10/04 09:32:51;;;;;;;6.65;3.10;;;15.80;99.90;;;-141.84;59.67;20163.41;5030883;28;20589;-68
2022/10/04 09:36:12;;;;;;;6.75;3.00;;;15.70;99.90;;;-141.84;59.70;20126.84;5028710;28;20559;-71
2022/10/04 09:39:15;;;;;;;7.65;3.85;;;15.80;99.90;;;-141.84;59.21;20151.22;5010773;28;20257;-69
2022/10/04 09:42:42;;;;;;;6.13;2.90;;;15.90;99.90;;;-141.84;59.11;20116.66;5010791;28;20297;-69
2022/10/04 09:45:52;;;;;;;4.80;3.00;;;15.90;99.90;;;-141.84;58.80;20149.19;5001170;28;20697;-70
2022/10/04 09:48:39;;;;;;;6.15;3.28;;;15.80;99.90;;;-141.84;58.70;20200.00;5013280;28;20303;-72
2022/10/04 09:51:30;;;;;;;6.03;2.70;;;15.90;99.90;;;-141.84;59.72;20102.44;5014555;28;20897;-69
2022/10/04 09:54:50;;;;;;;4.50;2.70;;;15.70;99.90;;;-141.84;60.56;20059.75;5014261;28;20231;-70
2022/10/04 09:57:32;;;;;;;4.65;2.80;;;15.70;99.90;;;-141.84;61.14;20027.25;5014445;28;20238;-69
2022/10/04 10:00:22;;;;;;;4.75;3.15;;;15.60;99.90;;;-141.84;60.18;20045.53;5014436;28;20233;-70
2022/10/04 10:03:45;;;;;;;5.40;3.28;;;15.60;99.90;;;-141.84;59.30;20130.91;5014442;28;20222;-71
2022/10/04 10:07:00;;;;;;;5.07;3.03;;;15.70;99.90;;;-141.84;58.49;20197.97;5014477;28;20276;-70
2022/10/04 10:16:00;;;;;;;7.10;2.67;;;16.00;99.90;;;-141.84;58.09;20187.81;5014231;28;20234;-71
2022/10/04 10:18:48;;;;;;;4.72;2.58;;;16.10;99.90;;;-141.84;58.02;20228.47;5014279;28;20597;-69
2022/10/04 10:21:42;;;;;;;12.93;4.60;;;16.20;99.90;;;-141.84;56.98;20303.66;5014125;28;20241;-71
2022/10/04 10:25:04;;;;;;;4.28;2.53;;;16.20;99.90;;;-141.84;57.05;20279.28;5013890;28;20277;-69
2022/10/04 10:27:57;;;;;;;4.45;2.50;;;16.30;99.90;;;-141.84;57.88;20305.69;5033976;28;20248;-71
2022/10/04 10:30:33;;;;;;;7.40;3.13;;;16.20;99.90;;;-141.84;57.20;20273.19;5033681;28;20244;-70
2022/10/04 10:33:41;;;;;;;4.10;2.70;;;16.20;99.90;;;-141.84;56.92;20283.34;5033236;28;20283;-70
2022/10/04 10:36:47;;;;;;;4.97;2.33;;;16.20;99.90;;;-141.84;56.08;20330.09;5033659;28;20280;-69
2022/10/04 10:39:56;;;;;;;4.68;2.28;;;16.30;99.90;;;-141.84;54.75;20433.75;5033413;28;20226;-70
2022/10/04 10:43:04;;;;;;;4.60;2.50;;;16.40;99.90;;;-141.84;55.14;20374.81;5033623;28;20641;-71
2022/10/04 10:46:23;;;;;;;5.60;2.33;;;16.40;99.90;;;-141.84;55.17;20387.00;5028773;28;20230;-71
2022/10/04 10:49:22;;;;;;;3.55;2.17;;;16.40;99.90;;;-141.84;54.46;20393.09;5033275;28;20348;-69
2022/10/04 10:52:58;;;;;;;4.03;1.77;;;16.40;99.90;;;-141.84;52.39;20466.28;5033229;28;20775;-72
2022/10/04 10:55:46;;;;;;;2.13;1.13;;;16.50;99.90;;;-141.84;51.61;20541.50;5033302;28;20285;-71
2022/10/04 10:59:22;;;;;;;2.25;1.30;;;16.60;99.90;;;-141.84;50.87;20578.09;5050655;28;20233;-71
2022/10/04 11:02:31;;;;;;;2.58;1.40;;;16.60;99.90;;;-141.84;51.21;20537.44;4984819;28;20227;-69
2022/10/04 11:05:58;;;;;;;3.58;1.67;;;16.60;99.90;;;-141.84;50.23;20614.66;4991152;28;20267;-69
2022/10/04 11:09:11;;;;;;;2.63;1.70;;;16.80;99.90;;;-141.84;50.96;20608.56;5033121;28;20767;-70
2022/10/04 11:12:39;;;;;;;3.15;1.50;;;16.80;99.90;;;-141.84;50.62;20643.13;5037609;28;20229;-71
2022/10/04 11:15:50;;;;;;;5.57;2.10;;;16.90;99.90;;;-141.84;51.11;20643.13;5052568;28;20247;-71
2022/10/04 11:19:09;;;;;;;4.90;2.20;;;17.00;99.90;;;-141.84;52.10;20608.56;5052717;28;20256;-71
2022/10/04 11:22:30;;;;;;;5.75;2.63;;;17.00;99.90;;;-141.84;52.86;20545.56;5052302;28;20224;-70
2022/10/04 11:25:38;;;;;;;4.88;2.67;;;16.80;99.90;;;-141.84;52.71;20580.13;5052514;28;20248;-70
2022/10/04 11:28:17;;;;;;;5.35;2.88;;;16.70;99.90;;;-141.84;53.63;20565.88;5052629;28;20306;-70
2022/10/04 11:31:53;;;;;;;4.55;2.33;;;16.60;99.90;;;-141.84;53.72;20539.47;5052451;28;20240;-71
2022/10/04 11:35:07;;;;;;;4.03;1.95;;;16.60;99.90;;;-141.84;53.46;20565.88;5003843;28;20232;-70
2022/10/04 11:38:01;;;;;;;3.22;2.10;;;16.70;99.90;;;-141.84;53.49;20606.53;5052673;28;20217;-71